sensor_id;sensor_type;location;lat;lon;timestamp;temperature;humidity
50586;DHT22;36542;51.700;8.846;2022-10-31T00:01:24;13.60;99.90
50586;DHT22;36542;51.700;8.846;2022-10-31T00:03:50;13.60;99.90
50586;DHT22;36542;51.700;8.846;2022-10-31T00:06:16;13.60;99.90
50586;DHT22;36542;51.700;8.846;2022-10-31T00:08:51;13.70;99.90
50586;DHT22;36542;51.700;8.846;2022-10-31T00:11:16;13.70;99.90
50586;DHT22;36542;51.700;8.846;2022-10-31T00:13:42;13.70;99.90
50586;DHT22;36542;51.700;8.846;2022-10-31T00:16:15;13.60;99.90
50586;DHT22;36542;51.700;8.846;2022-10-31T00:18:40;13.60;99.90
50586;DHT22;36542;51.700;8.846;2022-10-31T00:21:06;13.60;99.90
50586;DHT22;36542;51.700;8.846;2022-10-31T00:23:31;13.60;99.90
50586;DHT22;36542;51.700;8.846;2022-10-31T00:26:02;13.50;99.90
50586;DHT22;36542;51.700;8.846;2022-10-31T00:28:29;13.60;99.90
50586;DHT22;36542;51.700;8.846;2022-10-31T00:31:01;13.50;99.90
50586;DHT22;36542;51.700;8.846;2022-10-31T00:33:27;13.60;99.90
50586;DHT22;36542;51.700;8.846;2022-10-31T00:35:54;13.70;99.90
50586;DHT22;36542;51.700;8.846;2022-10-31T00:38:19;13.80;99.90
50586;DHT22;36542;51.700;8.846;2022-10-31T00:40:45;13.80;99.90
50586;DHT22;36542;51.700;8.846;2022-10-31T00:43:11;13.90;99.90
50586;DHT22;36542;51.700;8.846;2022-10-31T00:45:36;13.90;99.90
50586;DHT22;36542;51.700;8.846;2022-10-31T00:48:02;13.90;99.90
50586;DHT22;36542;51.700;8.846;2022-10-31T00:50:27;13.90;99.90
50586;DHT22;36542;51.700;8.846;2022-10-31T00:52:53;13.90;99.90
50586;DHT22;36542;51.700;8.846;2022-10-31T00:55:18;13.90;99.90
50586;DHT22;36542;51.700;8.846;2022-10-31T00:57:46;13.90;99.90
50586;DHT22;36542;51.700;8.846;2022-10-31T01:00:13;13.90;99.90
50586;DHT22;36542;51.700;8.846;2022-10-31T01:02:39;13.90;99.90
50586;DHT22;36542;51.700;8.846;2022-10-31T01:05:04;13.90;99.90
50586;DHT22;36542;51.700;8.846;2022-10-31T01:07:30;13.90;99.90
50586;DHT22;36542;51.700;8.846;2022-10-31T01:09:56;13.90;99.90
50586;DHT22;36542;51.700;8.846;2022-10-31T01:12:21;13.80;99.90
50586;DHT22;36542;51.700;8.846;2022-10-31T01:14:47;13.80;99.90
50586;DHT22;36542;51.700;8.846;2022-10-31T01:17:13;13.70;99.90
50586;DHT22;36542;51.700;8.846;2022-10-31T01:19:38;13.70;99.90
50586;DHT22;36542;51.700;8.846;2022-10-31T01:22:04;13.70;99.90
50586;DHT22;36542;51.700;8.846;2022-10-31T01:24:30;13.60;99.90
50586;DHT22;36542;51.700;8.846;2022-10-31T01:26:55;13.60;99.90
50586;DHT22;36542;51.700;8.846;2022-10-31T01:29:21;13.60;99.90
50586;DHT22;36542;51.700;8.846;2022-10-31T01:31:46;13.60;99.90
50586;DHT22;36542;51.700;8.846;2022-10-31T01:34:14;13.60;99.90
50586;DHT22;36542;51.700;8.846;2022-10-31T01:36:41;13.60;99.90
50586;DHT22;36542;51.700;8.846;2022-10-31T01:39:10;13.60;99.90
50586;DHT22;36542;51.700;8.846;2022-10-31T01:41:38;13.50;99.90
50586;DHT22;36542;51.700;8.846;2022-10-31T01:46:59;13.50;99.90
50586;DHT22;36542;51.700;8.846;2022-10-31T01:49:42;13.50;99.90
50586;DHT22;36542;51.700;8.846;2022-10-31T01:55:01;13.40;99.90
50586;DHT22;36542;51.700;8.846;2022-10-31T01:57:29;13.50;99.90
50586;DHT22;36542;51.700;8.846;2022-10-31T01:59:59;13.40;99.90
50586;DHT22;36542;51.700;8.846;2022-10-31T02:02:27;13.40;99.90
50586;DHT22;36542;51.700;8.846;2022-10-31T02:04:54;13.30;99.90
50586;DHT22;36542;51.700;8.846;2022-10-31T02:07:38;13.30;99.90
50586;DHT22;36542;51.700;8.846;2022-10-31T02:10:05;13.20;99.90
50586;DHT22;36542;51.700;8.846;2022-10-31T02:12:31;13.20;99.90
50586;DHT22;36542;51.700;8.846;2022-10-31T02:14:59;13.10;99.90
50586;DHT22;36542;51.700;8.846;2022-10-31T02:17:24;13.10;99.90
50586;DHT22;36542;51.700;8.846;2022-10-31T02:20:00;13.00;99.90
50586;DHT22;36542;51.700;8.846;2022-10-31T02:28:41;12.60;99.90
50586;DHT22;36542;51.700;8.846;2022-10-31T02:34:13;12.60;99.90
50586;DHT22;36542;51.700;8.846;2022-10-31T02:36:56;12.60;99.90
50586;DHT22;36542;51.700;8.846;2022-10-31T02:39:39;12.60;99.90
50586;DHT22;36542;51.700;8.846;2022-10-31T02:42:12;12.70;99.90
50586;DHT22;36542;51.700;8.846;2022-10-31T02:44:48;12.70;99.90
50586;DHT22;36542;51.700;8.846;2022-10-31T02:47:22;12.60;99.90
50586;DHT22;36542;51.700;8.846;2022-10-31T02:50:26;12.50;99.90
50586;DHT22;36542;51.700;8.846;2022-10-31T02:52:53;12.50;99.90
50586;DHT22;36542;51.700;8.846;2022-10-31T02:57:54;12.30;99.90
50586;DHT22;36542;51.700;8.846;2022-10-31T03:00:22;12.30;99.90
50586;DHT22;36542;51.700;8.846;2022-10-31T03:06:03;12.40;99.90
50586;DHT22;36542;51.700;8.846;2022-10-31T03:08:40;12.40;99.90
50586;DHT22;36542;51.700;8.846;2022-10-31T03:11:08;12.40;99.90
50586;DHT22;36542;51.700;8.846;2022-10-31T03:16:25;12.50;99.90
50586;DHT22;36542;51.700;8.846;2022-10-31T03:19:14;12.60;99.90
50586;DHT22;36542;51.700;8.846;2022-10-31T03:21:42;12.60;99.90
50586;DHT22;36542;51.700;8.846;2022-10-31T03:24:10;12.60;99.90
50586;DHT22;36542;51.700;8.846;2022-10-31T03:26:39;12.70;99.90
50586;DHT22;36542;51.700;8.846;2022-10-31T03:29:06;12.70;99.90
50586;DHT22;36542;51.700;8.846;2022-10-31T03:31:38;12.70;99.90
50586;DHT22;36542;51.700;8.846;2022-10-31T03:34:07;12.80;99.90
50586;DHT22;36542;51.700;8.846;2022-10-31T03:36:34;12.80;99.90
50586;DHT22;36542;51.700;8.846;2022-10-31T03:39:02;12.80;99.90
50586;DHT22;36542;51.700;8.846;2022-10-31T03:41:32;12.70;99.90
50586;DHT22;36542;51.700;8.846;2022-10-31T03:44:08;12.60;99.90
50586;DHT22;36542;51.700;8.846;2022-10-31T03:46:36;12.60;99.90
50586;DHT22;36542;51.700;8.846;2022-10-31T03:49:02;12.50;99.90
50586;DHT22;36542;51.700;8.846;2022-10-31T03:51:39;12.50;99.90
50586;DHT22;36542;51.700;8.846;2022-10-31T03:54:25;12.40;99.90
50586;DHT22;36542;51.700;8.846;2022-10-31T03:56:56;12.10;99.90
50586;DHT22;36542;51.700;8.846;2022-10-31T03:59:47;11.80;99.90
50586;DHT22;36542;51.700;8.846;2022-10-31T04:02:19;11.80;99.90
50586;DHT22;36542;51.700;8.846;2022-10-31T04:04:46;11.80;99.90
50586;DHT22;36542;51.700;8.846;2022-10-31T04:07:14;11.90;99.90
50586;DHT22;36542;51.700;8.846;2022-10-31T04:09:43;11.90;99.90
50586;DHT22;36542;51.700;8.846;2022-10-31T04:12:11;11.70;99.90
50586;DHT22;36542;51.700;8.846;2022-10-31T04:14:42;11.30;99.90
50586;DHT22;36542;51.700;8.846;2022-10-31T04:17:11;11.10;99.90
50586;DHT22;36542;51.700;8.846;2022-10-31T04:19:37;10.90;99.90
50586;DHT22;36542;51.700;8.846;2022-10-31T04:22:03;10.90;99.90
50586;DHT22;36542;51.700;8.846;2022-10-31T04:24:28;10.70;99.90
50586;DHT22;36542;51.700;8.846;2022-10-31T04:26:54;10.70;99.90
50586;DHT22;36542;51.700;8.846;2022-10-31T04:29:19;10.60;99.90
50586;DHT22;36542;51.700;8.846;2022-10-31T04:31:45;10.50;99.90
50586;DHT22;36542;51.700;8.846;2022-10-31T04:34:10;10.60;99.90
50586;DHT22;36542;51.700;8.846;2022-10-31T04:36:36;10.60;99.90
50586;DHT22;36542;51.700;8.846;2022-10-31T04:39:02;10.50;99.90
50586;DHT22;36542;51.700;8.846;2022-10-31T04:41:27;10.40;99.90
50586;DHT22;36542;51.700;8.846;2022-10-31T04:43:53;10.30;99.90
50586;DHT22;36542;51.700;8.846;2022-10-31T04:46:18;10.30;99.90
50586;DHT22;36542;51.700;8.846;2022-10-31T04:48:44;10.30;99.90
50586;DHT22;36542;51.700;8.846;2022-10-31T04:51:10;10.30;99.90
50586;DHT22;36542;51.700;8.846;2022-10-31T04:53:35;10.40;99.90
50586;DHT22;36542;51.700;8.846;2022-10-31T04:56:01;10.30;99.90
50586;DHT22;36542;51.700;8.846;2022-10-31T04:58:27;10.30;99.90
50586;DHT22;36542;51.700;8.846;2022-10-31T05:00:53;10.30;99.90
50586;DHT22;36542;51.700;8.846;2022-10-31T05:03:19;10.30;99.90
50586;DHT22;36542;51.700;8.846;2022-10-31T05:05:45;10.30;99.90
50586;DHT22;36542;51.700;8.846;2022-10-31T05:08:10;10.40;99.90
50586;DHT22;36542;51.700;8.846;2022-10-31T05:10:36;10.40;99.90
50586;DHT22;36542;51.700;8.846;2022-10-31T05:13:03;10.50;99.90
50586;DHT22;36542;51.700;8.846;2022-10-31T05:15:29;10.50;99.90
50586;DHT22;36542;51.700;8.846;2022-10-31T05:17:55;10.50;99.90
50586;DHT22;36542;51.700;8.846;2022-10-31T05:20:23;10.50;99.90
50586;DHT22;36542;51.700;8.846;2022-10-31T05:22:52;10.50;99.90
50586;DHT22;36542;51.700;8.846;2022-10-31T05:25:19;10.50;99.90
50586;DHT22;36542;51.700;8.846;2022-10-31T05:27:47;10.60;99.90
50586;DHT22;36542;51.700;8.846;2022-10-31T05:30:15;10.60;99.90
50586;DHT22;36542;51.700;8.846;2022-10-31T05:32:43;10.70;99.90
50586;DHT22;36542;51.700;8.846;2022-10-31T05:35:13;10.80;99.90
50586;DHT22;36542;51.700;8.846;2022-10-31T05:37:39;10.80;99.90
50586;DHT22;36542;51.700;8.846;2022-10-31T05:40:06;10.80;99.90
50586;DHT22;36542;51.700;8.846;2022-10-31T05:42:33;10.70;99.90
50586;DHT22;36542;51.700;8.846;2022-10-31T05:44:58;10.70;99.90
50586;DHT22;36542;51.700;8.846;2022-10-31T05:47:24;10.50;99.90
50586;DHT22;36542;51.700;8.846;2022-10-31T05:49:50;10.30;99.90
50586;DHT22;36542;51.700;8.846;2022-10-31T05:52:16;10.20;99.90
50586;DHT22;36542;51.700;8.846;2022-10-31T05:54:41;10.20;99.90
50586;DHT22;36542;51.700;8.846;2022-10-31T05:57:07;10.20;99.90
50586;DHT22;36542;51.700;8.846;2022-10-31T05:59:33;10.20;99.90
50586;DHT22;36542;51.700;8.846;2022-10-31T06:01:58;10.20;99.90
50586;DHT22;36542;51.700;8.846;2022-10-31T06:04:24;10.10;99.90
50586;DHT22;36542;51.700;8.846;2022-10-31T06:06:49;10.10;99.90
50586;DHT22;36542;51.700;8.846;2022-10-31T06:09:15;10.00;99.90
50586;DHT22;36542;51.700;8.846;2022-10-31T06:11:40;9.90;99.90
50586;DHT22;36542;51.700;8.846;2022-10-31T06:14:06;9.90;99.90
50586;DHT22;36542;51.700;8.846;2022-10-31T06:16:32;9.80;99.90
50586;DHT22;36542;51.700;8.846;2022-10-31T06:18:57;9.70;99.90
50586;DHT22;36542;51.700;8.846;2022-10-31T06:21:23;9.80;99.90
50586;DHT22;36542;51.700;8.846;2022-10-31T06:23:49;10.00;99.90
50586;DHT22;36542;51.700;8.846;2022-10-31T06:26:14;10.10;99.90
50586;DHT22;36542;51.700;8.846;2022-10-31T06:28:40;10.20;99.90
50586;DHT22;36542;51.700;8.846;2022-10-31T06:31:06;10.30;99.90
50586;DHT22;36542;51.700;8.846;2022-10-31T06:33:32;10.40;99.90
50586;DHT22;36542;51.700;8.846;2022-10-31T06:35:57;10.50;99.90
50586;DHT22;36542;51.700;8.846;2022-10-31T06:38:24;10.60;99.90
50586;DHT22;36542;51.700;8.846;2022-10-31T06:40:50;10.70;99.90
50586;DHT22;36542;51.700;8.846;2022-10-31T06:43:15;10.70;99.90
50586;DHT22;36542;51.700;8.846;2022-10-31T06:45:41;10.70;99.90
50586;DHT22;36542;51.700;8.846;2022-10-31T06:48:06;10.80;99.90
50586;DHT22;36542;51.700;8.846;2022-10-31T06:50:32;11.00;99.90
50586;DHT22;36542;51.700;8.846;2022-10-31T06:52:58;11.10;99.90
50586;DHT22;36542;51.700;8.846;2022-10-31T06:55:25;11.20;99.90
50586;DHT22;36542;51.700;8.846;2022-10-31T06:58:00;11.30;99.90
50586;DHT22;36542;51.700;8.846;2022-10-31T07:00:28;11.40;99.90
50586;DHT22;36542;51.700;8.846;2022-10-31T07:05:22;11.50;99.90
50586;DHT22;36542;51.700;8.846;2022-10-31T07:07:55;11.60;99.90
50586;DHT22;36542;51.700;8.846;2022-10-31T07:10:22;11.70;99.90
50586;DHT22;36542;51.700;8.846;2022-10-31T07:12:48;11.70;99.90
50586;DHT22;36542;51.700;8.846;2022-10-31T07:15:14;11.70;99.90
50586;DHT22;36542;51.700;8.846;2022-10-31T07:17:39;11.80;99.90
50586;DHT22;36542;51.700;8.846;2022-10-31T07:20:05;11.90;99.90
50586;DHT22;36542;51.700;8.846;2022-10-31T07:22:35;12.10;99.90
50586;DHT22;36542;51.700;8.846;2022-10-31T07:25:01;12.30;99.90
50586;DHT22;36542;51.700;8.846;2022-10-31T07:27:27;12.50;99.90
50586;DHT22;36542;51.700;8.846;2022-10-31T07:29:52;12.70;99.90
50586;DHT22;36542;51.700;8.846;2022-10-31T07:32:18;12.90;99.90
50586;DHT22;36542;51.700;8.846;2022-10-31T07:34:43;13.00;99.90
50586;DHT22;36542;51.700;8.846;2022-10-31T07:37:09;13.10;99.90
50586;DHT22;36542;51.700;8.846;2022-10-31T07:39:34;13.30;99.90
50586;DHT22;36542;51.700;8.846;2022-10-31T07:42:00;13.40;99.90
50586;DHT22;36542;51.700;8.846;2022-10-31T07:44:26;13.40;99.90
50586;DHT22;36542;51.700;8.846;2022-10-31T07:46:51;13.60;99.90
50586;DHT22;36542;51.700;8.846;2022-10-31T07:49:17;13.70;99.90
50586;DHT22;36542;51.700;8.846;2022-10-31T07:51:42;13.90;99.90
50586;DHT22;36542;51.700;8.846;2022-10-31T07:54:08;14.10;99.90
50586;DHT22;36542;51.700;8.846;2022-10-31T07:56:33;14.30;99.90
50586;DHT22;36542;51.700;8.846;2022-10-31T07:58:59;14.40;99.90
50586;DHT22;36542;51.700;8.846;2022-10-31T08:01:24;14.50;99.90
50586;DHT22;36542;51.700;8.846;2022-10-31T08:03:50;14.60;99.90
50586;DHT22;36542;51.700;8.846;2022-10-31T08:06:15;14.60;99.90
50586;DHT22;36542;51.700;8.846;2022-10-31T08:08:42;14.20;99.90
50586;DHT22;36542;51.700;8.846;2022-10-31T08:11:07;14.60;99.90
50586;DHT22;36542;51.700;8.846;2022-10-31T08:13:33;15.00;99.90
50586;DHT22;36542;51.700;8.846;2022-10-31T08:15:58;15.50;99.90
50586;DHT22;36542;51.700;8.846;2022-10-31T08:18:29;15.80;99.90
50586;DHT22;36542;51.700;8.846;2022-10-31T08:20:55;16.30;99.90
50586;DHT22;36542;51.700;8.846;2022-10-31T08:23:20;16.70;99.90
50586;DHT22;36542;51.700;8.846;2022-10-31T08:25:46;17.30;99.90
50586;DHT22;36542;51.700;8.846;2022-10-31T08:28:13;17.60;99.90
50586;DHT22;36542;51.700;8.846;2022-10-31T08:30:40;17.80;99.90
50586;DHT22;36542;51.700;8.846;2022-10-31T08:33:09;18.10;99.90
50586;DHT22;36542;51.700;8.846;2022-10-31T08:35:34;18.40;99.90
50586;DHT22;36542;51.700;8.846;2022-10-31T08:38:00;18.80;99.90
50586;DHT22;36542;51.700;8.846;2022-10-31T08:40:27;19.00;99.90
50586;DHT22;36542;51.700;8.846;2022-10-31T08:42:58;19.20;99.90
50586;DHT22;36542;51.700;8.846;2022-10-31T08:45:24;18.80;99.90
50586;DHT22;36542;51.700;8.846;2022-10-31T08:47:50;18.30;99.90
50586;DHT22;36542;51.700;8.846;2022-10-31T08:50:16;18.20;99.90
50586;DHT22;36542;51.700;8.846;2022-10-31T08:52:41;18.00;99.90
50586;DHT22;36542;51.700;8.846;2022-10-31T08:55:07;18.20;99.90
50586;DHT22;36542;51.700;8.846;2022-10-31T08:57:33;18.50;99.90
50586;DHT22;36542;51.700;8.846;2022-10-31T08:59:58;19.00;99.90
50586;DHT22;36542;51.700;8.846;2022-10-31T09:02:24;19.40;99.90
50586;DHT22;36542;51.700;8.846;2022-10-31T09:04:49;19.60;99.90
50586;DHT22;36542;51.700;8.846;2022-10-31T09:07:15;19.70;99.90
50586;DHT22;36542;51.700;8.846;2022-10-31T09:09:40;19.70;99.90
50586;DHT22;36542;51.700;8.846;2022-10-31T09:12:06;19.70;99.90
50586;DHT22;36542;51.700;8.846;2022-10-31T09:14:31;19.70;99.90
50586;DHT22;36542;51.700;8.846;2022-10-31T09:16:57;19.70;99.90
50586;DHT22;36542;51.700;8.846;2022-10-31T09:19:22;19.50;99.90
50586;DHT22;36542;51.700;8.846;2022-10-31T09:21:52;19.40;99.90
50586;DHT22;36542;51.700;8.846;2022-10-31T09:24:19;19.40;99.90
50586;DHT22;36542;51.700;8.846;2022-10-31T09:26:44;19.20;99.90
50586;DHT22;36542;51.700;8.846;2022-10-31T09:29:10;19.10;99.90
50586;DHT22;36542;51.700;8.846;2022-10-31T09:31:35;19.10;99.90
50586;DHT22;36542;51.700;8.846;2022-10-31T09:34:01;19.20;99.90
50586;DHT22;36542;51.700;8.846;2022-10-31T09:36:27;19.20;99.90
50586;DHT22;36542;51.700;8.846;2022-10-31T09:38:52;19.40;99.90
50586;DHT22;36542;51.700;8.846;2022-10-31T09:47:00;19.20;99.90
50586;DHT22;36542;51.700;8.846;2022-10-31T09:50:00;19.20;99.90
50586;DHT22;36542;51.700;8.846;2022-10-31T09:52:30;19.40;99.90
50586;DHT22;36542;51.700;8.846;2022-10-31T09:55:14;19.60;99.90
50586;DHT22;36542;51.700;8.846;2022-10-31T09:57:42;19.70;99.90
50586;DHT22;36542;51.700;8.846;2022-10-31T10:00:15;19.80;99.90
50586;DHT22;36542;51.700;8.846;2022-10-31T10:02:48;20.10;99.90
50586;DHT22;36542;51.700;8.846;2022-10-31T10:05:20;20.10;99.90
50586;DHT22;36542;51.700;8.846;2022-10-31T10:08:01;20.30;99.90
50586;DHT22;36542;51.700;8.846;2022-10-31T10:13:40;20.30;99.90
50586;DHT22;36542;51.700;8.846;2022-10-31T10:16:11;20.50;99.90
50586;DHT22;36542;51.700;8.846;2022-10-31T10:21:32;20.90;99.90
50586;DHT22;36542;51.700;8.846;2022-10-31T10:27:22;21.40;99.90
50586;DHT22;36542;51.700;8.846;2022-10-31T10:30:07;20.40;99.90
50586;DHT22;36542;51.700;8.846;2022-10-31T10:32:49;19.80;99.90
50586;DHT22;36542;51.700;8.846;2022-10-31T10:35:34;19.30;99.90
50586;DHT22;36542;51.700;8.846;2022-10-31T10:40:34;19.10;99.90
50586;DHT22;36542;51.700;8.846;2022-10-31T10:43:20;19.40;99.90
50586;DHT22;36542;51.700;8.846;2022-10-31T10:46:16;19.40;99.90
50586;DHT22;36542;51.700;8.846;2022-10-31T10:49:15;19.30;99.90
50586;DHT22;36542;51.700;8.846;2022-10-31T11:00:00;19.30;99.90
50586;DHT22;36542;51.700;8.846;2022-10-31T11:02:27;19.60;99.90
50586;DHT22;36542;51.700;8.846;2022-10-31T11:04:58;19.90;99.90
50586;DHT22;36542;51.700;8.846;2022-10-31T11:07:24;20.00;99.90
50586;DHT22;36542;51.700;8.846;2022-10-31T11:09:50;20.00;99.90
50586;DHT22;36542;51.700;8.846;2022-10-31T11:12:22;20.20;99.90
50586;DHT22;36542;51.700;8.846;2022-10-31T11:17:26;19.90;99.90
50586;DHT22;36542;51.700;8.846;2022-10-31T11:22:46;19.40;99.90
50586;DHT22;36542;51.700;8.846;2022-10-31T11:25:22;19.40;99.90
50586;DHT22;36542;51.700;8.846;2022-10-31T11:28:01;19.20;99.90
50586;DHT22;36542;51.700;8.846;2022-10-31T11:30:27;19.00;99.90
50586;DHT22;36542;51.700;8.846;2022-10-31T11:32:53;18.80;99.90
50586;DHT22;36542;51.700;8.846;2022-10-31T11:35:21;18.60;99.90
50586;DHT22;36542;51.700;8.846;2022-10-31T11:37:49;18.60;99.90
50586;DHT22;36542;51.700;8.846;2022-10-31T11:40:18;18.50;99.90
50586;DHT22;36542;51.700;8.846;2022-10-31T11:42:45;18.50;99.90
50586;DHT22;36542;51.700;8.846;2022-10-31T11:47:42;18.60;99.90
50586;DHT22;36542;51.700;8.846;2022-10-31T11:50:11;18.60;99.90
50586;DHT22;36542;51.700;8.846;2022-10-31T11:52:43;18.60;99.90
50586;DHT22;36542;51.700;8.846;2022-10-31T11:57:48;18.40;99.90
50586;DHT22;36542;51.700;8.846;2022-10-31T12:00:32;18.40;99.90
50586;DHT22;36542;51.700;8.846;2022-10-31T12:06:07;18.50;99.90
50586;DHT22;36542;51.700;8.846;2022-10-31T12:08:36;18.50;99.90
50586;DHT22;36542;51.700;8.846;2022-10-31T12:24:35;18.20;99.90
50586;DHT22;36542;51.700;8.846;2022-10-31T12:27:32;18.20;99.90
50586;DHT22;36542;51.700;8.846;2022-10-31T12:30:29;18.10;99.90
50586;DHT22;36542;51.700;8.846;2022-10-31T12:33:05;18.10;99.90
50586;DHT22;36542;51.700;8.846;2022-10-31T12:35:51;18.10;99.90
50586;DHT22;36542;51.700;8.846;2022-10-31T12:38:39;18.10;99.90
50586;DHT22;36542;51.700;8.846;2022-10-31T12:57:51;18.20;99.90
50586;DHT22;36542;51.700;8.846;2022-10-31T13:00:19;18.20;99.90
50586;DHT22;36542;51.700;8.846;2022-10-31T13:02:57;18.10;99.90
50586;DHT22;36542;51.700;8.846;2022-10-31T13:05:41;18.10;99.90
50586;DHT22;36542;51.700;8.846;2022-10-31T13:08:12;18.00;99.90
50586;DHT22;36542;51.700;8.846;2022-10-31T13:10:49;17.90;99.90
50586;DHT22;36542;51.700;8.846;2022-10-31T13:13:19;18.00;99.90
50586;DHT22;36542;51.700;8.846;2022-10-31T13:15:52;18.00;99.90
50586;DHT22;36542;51.700;8.846;2022-10-31T13:18:32;18.10;99.90
50586;DHT22;36542;51.700;8.846;2022-10-31T13:21:03;18.20;99.90
50586;DHT22;36542;51.700;8.846;2022-10-31T13:23:34;18.30;99.90
50586;DHT22;36542;51.700;8.846;2022-10-31T13:26:08;18.30;99.90
50586;DHT22;36542;51.700;8.846;2022-10-31T13:28:41;18.30;99.90
50586;DHT22;36542;51.700;8.846;2022-10-31T13:31:09;18.30;99.90
50586;DHT22;36542;51.700;8.846;2022-10-31T13:33:48;18.30;99.90
50586;DHT22;36542;51.700;8.846;2022-10-31T13:36:38;18.20;99.90
50586;DHT22;36542;51.700;8.846;2022-10-31T13:39:45;18.20;99.90
50586;DHT22;36542;51.700;8.846;2022-10-31T13:42:41;18.10;99.90
50586;DHT22;36542;51.700;8.846;2022-10-31T13:47:38;18.00;99.90
50586;DHT22;36542;51.700;8.846;2022-10-31T13:50:20;18.00;99.90
50586;DHT22;36542;51.700;8.846;2022-10-31T13:52:46;18.00;99.90
50586;DHT22;36542;51.700;8.846;2022-10-31T13:55:38;17.90;99.90
50586;DHT22;36542;51.700;8.846;2022-10-31T13:58:24;17.90;99.90
50586;DHT22;36542;51.700;8.846;2022-10-31T14:03:30;17.90;99.90
50586;DHT22;36542;51.700;8.846;2022-10-31T14:05:56;17.90;99.90
50586;DHT22;36542;51.700;8.846;2022-10-31T14:08:23;17.90;99.90
50586;DHT22;36542;51.700;8.846;2022-10-31T14:10:51;17.80;99.90
50586;DHT22;36542;51.700;8.846;2022-10-31T14:13:19;17.80;99.90
50586;DHT22;36542;51.700;8.846;2022-10-31T14:16:02;17.80;99.90
50586;DHT22;36542;51.700;8.846;2022-10-31T14:18:39;17.70;99.90
50586;DHT22;36542;51.700;8.846;2022-10-31T14:23:51;17.60;99.90
50586;DHT22;36542;51.700;8.846;2022-10-31T14:28:46;17.50;99.90
50586;DHT22;36542;51.700;8.846;2022-10-31T14:46:05;17.30;99.90
50586;DHT22;36542;51.700;8.846;2022-10-31T14:51:39;17.20;99.90
50586;DHT22;36542;51.700;8.846;2022-10-31T14:54:10;17.20;99.90
50586;DHT22;36542;51.700;8.846;2022-10-31T14:56:48;17.10;99.90
50586;DHT22;36542;51.700;8.846;2022-10-31T14:59:24;17.10;99.90
50586;DHT22;36542;51.700;8.846;2022-10-31T15:01:59;17.10;99.90
50586;DHT22;36542;51.700;8.846;2022-10-31T15:04:29;17.10;99.90
50586;DHT22;36542;51.700;8.846;2022-10-31T15:07:22;17.00;99.90
50586;DHT22;36542;51.700;8.846;2022-10-31T15:10:06;17.00;99.90
50586;DHT22;36542;51.700;8.846;2022-10-31T15:12:34;17.00;99.90
50586;DHT22;36542;51.700;8.846;2022-10-31T15:15:20;16.90;99.90
50586;DHT22;36542;51.700;8.846;2022-10-31T15:17:55;16.90;99.90
50586;DHT22;36542;51.700;8.846;2022-10-31T15:20:36;16.90;99.90
50586;DHT22;36542;51.700;8.846;2022-10-31T15:23:02;16.80;99.90
50586;DHT22;36542;51.700;8.846;2022-10-31T15:25:32;16.80;99.90
50586;DHT22;36542;51.700;8.846;2022-10-31T15:27:58;16.70;99.90
50586;DHT22;36542;51.700;8.846;2022-10-31T15:30:26;16.70;99.90
50586;DHT22;36542;51.700;8.846;2022-10-31T15:32:52;16.70;99.90
50586;DHT22;36542;51.700;8.846;2022-10-31T15:35:30;16.70;99.90
50586;DHT22;36542;51.700;8.846;2022-10-31T15:37:59;16.60;99.90
50586;DHT22;36542;51.700;8.846;2022-10-31T15:40:26;16.60;99.90
50586;DHT22;36542;51.700;8.846;2022-10-31T15:43:03;16.60;99.90
50586;DHT22;36542;51.700;8.846;2022-10-31T15:45:30;16.60;99.90
50586;DHT22;36542;51.700;8.846;2022-10-31T15:48:02;16.60;99.90
50586;DHT22;36542;51.700;8.846;2022-10-31T15:50:37;16.60;99.90
50586;DHT22;36542;51.700;8.846;2022-10-31T15:53:06;16.60;99.90
50586;DHT22;36542;51.700;8.846;2022-10-31T15:55:48;16.50;99.90
50586;DHT22;36542;51.700;8.846;2022-10-31T15:58:16;16.50;99.90
50586;DHT22;36542;51.700;8.846;2022-10-31T16:00:41;16.50;99.90
50586;DHT22;36542;51.700;8.846;2022-10-31T16:05:44;16.40;99.90
50586;DHT22;36542;51.700;8.846;2022-10-31T16:11:22;16.30;99.90
50586;DHT22;36542;51.700;8.846;2022-10-31T16:14:02;16.30;99.90
50586;DHT22;36542;51.700;8.846;2022-10-31T16:16:31;16.30;99.90
50586;DHT22;36542;51.700;8.846;2022-10-31T16:18:59;16.30;99.90
50586;DHT22;36542;51.700;8.846;2022-10-31T16:21:36;16.20;99.90
50586;DHT22;36542;51.700;8.846;2022-10-31T16:24:05;16.20;99.90
50586;DHT22;36542;51.700;8.846;2022-10-31T16:26:37;16.20;99.90
50586;DHT22;36542;51.700;8.846;2022-10-31T16:29:03;16.20;99.90
50586;DHT22;36542;51.700;8.846;2022-10-31T16:31:39;16.20;99.90
50586;DHT22;36542;51.700;8.846;2022-10-31T16:34:14;16.20;99.90
50586;DHT22;36542;51.700;8.846;2022-10-31T16:36:40;16.10;99.90
50586;DHT22;36542;51.700;8.846;2022-10-31T16:39:07;16.10;99.90
50586;DHT22;36542;51.700;8.846;2022-10-31T16:41:39;16.10;99.90
50586;DHT22;36542;51.700;8.846;2022-10-31T16:44:22;16.10;99.90
50586;DHT22;36542;51.700;8.846;2022-10-31T16:49:31;16.00;99.90
50586;DHT22;36542;51.700;8.846;2022-10-31T16:51:57;16.10;99.90
50586;DHT22;36542;51.700;8.846;2022-10-31T16:54:23;16.10;99.90
50586;DHT22;36542;51.700;8.846;2022-10-31T16:56:48;16.10;99.90
50586;DHT22;36542;51.700;8.846;2022-10-31T16:59:14;16.10;99.90
50586;DHT22;36542;51.700;8.846;2022-10-31T17:01:40;16.10;99.90
50586;DHT22;36542;51.700;8.846;2022-10-31T17:04:09;16.10;99.90
50586;DHT22;36542;51.700;8.846;2022-10-31T17:06:37;16.10;99.90
50586;DHT22;36542;51.700;8.846;2022-10-31T17:09:02;16.10;99.90
50586;DHT22;36542;51.700;8.846;2022-10-31T17:11:28;16.10;99.90
50586;DHT22;36542;51.700;8.846;2022-10-31T17:13:53;16.00;99.90
50586;DHT22;36542;51.700;8.846;2022-10-31T17:16:19;16.00;99.90
50586;DHT22;36542;51.700;8.846;2022-10-31T17:18:45;15.90;99.90
50586;DHT22;36542;51.700;8.846;2022-10-31T17:21:22;15.90;99.90
50586;DHT22;36542;51.700;8.846;2022-10-31T17:23:49;15.90;99.90
50586;DHT22;36542;51.700;8.846;2022-10-31T17:26:14;15.90;99.90
50586;DHT22;36542;51.700;8.846;2022-10-31T17:28:40;15.90;99.90
50586;DHT22;36542;51.700;8.846;2022-10-31T17:31:07;15.90;99.90
50586;DHT22;36542;51.700;8.846;2022-10-31T17:33:35;15.90;99.90
50586;DHT22;36542;51.700;8.846;2022-10-31T17:36:02;15.90;99.90
50586;DHT22;36542;51.700;8.846;2022-10-31T17:38:27;15.90;99.90
50586;DHT22;36542;51.700;8.846;2022-10-31T17:40:53;15.90;99.90
50586;DHT22;36542;51.700;8.846;2022-10-31T17:43:18;15.90;99.90
50586;DHT22;36542;51.700;8.846;2022-10-31T17:45:44;15.90;99.90
50586;DHT22;36542;51.700;8.846;2022-10-31T17:48:13;15.80;99.90
50586;DHT22;36542;51.700;8.846;2022-10-31T17:50:38;15.80;99.90
50586;DHT22;36542;51.700;8.846;2022-10-31T17:53:04;15.80;99.90
50586;DHT22;36542;51.700;8.846;2022-10-31T17:55:30;15.70;99.90
50586;DHT22;36542;51.700;8.846;2022-10-31T17:57:55;15.70;99.90